createdAt,value
2019-04-23T00:01:35.398Z,54.50
2019-04-23T00:04:07.239Z,54.80
2019-04-23T00:06:43.398Z,54.80
2019-04-23T00:09:12.621Z,55.00
2019-04-23T00:11:39.599Z,55.50
2019-04-23T00:14:23.938Z,55.40
2019-04-23T00:16:44.015Z,55.50
2019-04-23T00:19:16.985Z,55.70
2019-04-23T00:21:55.382Z,55.70
2019-04-23T00:25:11.746Z,55.60
2019-04-23T00:29:52.673Z,55.80
2019-04-23T00:32:21.766Z,55.90
2019-04-23T00:34:54.610Z,56.00
2019-04-23T00:37:37.319Z,56.00
2019-04-23T00:39:52.295Z,56.10
2019-04-23T00:42:33.257Z,56.20
2019-04-23T00:44:56.292Z,56.40
2019-04-23T00:47:32.862Z,57.50
2019-04-23T00:50:05.812Z,57.30
2019-04-23T00:52:45.680Z,57.60
2019-04-23T00:55:12.769Z,58.10
2019-04-23T00:57:36.967Z,58.50
2019-04-23T01:00:13.997Z,58.10
2019-04-23T01:02:38.608Z,58.20
2019-04-23T01:05:11.372Z,58.80
2019-04-23T01:07:38.145Z,58.60
2019-04-23T01:10:15.187Z,59.70
2019-04-23T01:15:24.258Z,59.80
2019-04-23T01:17:53.464Z,59.00
2019-04-23T01:20:21.052Z,59.10
2019-04-23T01:22:35.733Z,59.40
2019-04-23T01:25:24.715Z,59.40
2019-04-23T01:28:20.025Z,59.80
2019-04-23T01:30:57.000Z,59.70
2019-04-23T01:33:27.145Z,60.10
2019-04-23T01:36:07.310Z,60.70
2019-04-23T01:38:29.248Z,60.20
2019-04-23T01:40:53.704Z,60.60
2019-04-23T01:43:30.129Z,61.10
2019-04-23T01:45:54.478Z,61.50
2019-04-23T01:48:32.615Z,61.00
2019-04-23T01:53:34.794Z,61.30
2019-04-23T01:56:20.029Z,61.50
2019-04-23T02:01:07.143Z,62.20
2019-04-23T02:03:43.465Z,62.20
2019-04-23T02:08:41.243Z,63.20
2019-04-23T02:11:28.590Z,63.10
2019-04-23T02:13:42.110Z,63.70
2019-04-23T02:16:10.625Z,63.90
2019-04-23T02:18:52.488Z,64.40
2019-04-23T02:21:39.491Z,65.00
2019-04-23T02:24:09.157Z,65.20
2019-04-23T02:26:39.875Z,66.00
2019-04-23T02:29:05.129Z,65.90
2019-04-23T02:36:39.806Z,66.70
2019-04-23T02:39:22.023Z,67.70
2019-04-23T02:41:46.897Z,66.90
2019-04-23T02:46:44.032Z,67.60
2019-04-23T02:49:18.008Z,67.70
2019-04-23T02:51:54.518Z,68.30
2019-04-23T03:02:07.726Z,69.00
2019-04-23T03:04:50.822Z,69.80
2019-04-23T03:09:45.224Z,69.50
2019-04-23T03:14:56.079Z,70.00
2019-04-23T03:17:15.045Z,70.20
2019-04-23T03:19:59.116Z,70.60
2019-04-23T03:22:39.842Z,70.70
2019-04-23T03:33:37.745Z,71.00
2019-04-23T03:35:31.177Z,71.00
2019-04-23T03:37:42.519Z,71.00
2019-04-23T03:40:11.635Z,71.00
2019-04-23T03:50:23.539Z,72.00
2019-04-23T03:55:31.501Z,71.00
2019-04-23T04:08:07.931Z,70.70
2019-04-23T04:10:40.890Z,70.90
2019-04-23T04:12:56.750Z,70.60
2019-04-23T04:28:14.624Z,71.30
2019-04-23T04:33:29.395Z,71.30
2019-04-23T04:36:13.167Z,71.50
2019-04-23T04:38:36.019Z,71.50
2019-04-23T04:43:33.895Z,73.30
2019-04-23T04:46:21.327Z,72.20
2019-04-23T04:48:35.371Z,72.40
2019-04-23T04:51:10.817Z,72.80
2019-04-23T04:58:40.722Z,72.00
2019-04-23T05:06:33.528Z,71.50
2019-04-23T05:16:13.953Z,70.60
2019-04-23T05:19:04.147Z,70.80
2019-04-23T05:21:26.938Z,70.60
2019-04-23T05:26:29.347Z,70.50
2019-04-23T05:29:06.400Z,70.30
2019-04-23T05:31:28.089Z,70.50
2019-04-23T05:34:03.022Z,70.30
2019-04-23T05:36:35.880Z,70.00
2019-04-23T05:41:36.480Z,67.00
2019-04-23T05:44:10.321Z,64.60
2019-04-23T05:46:37.849Z,61.50
2019-04-23T05:49:14.227Z,57.80
2019-04-23T05:54:12.977Z,55.10
2019-04-23T05:56:58.389Z,53.60
2019-04-23T06:01:49.850Z,53.10
2019-04-23T06:07:11.521Z,51.70
2019-04-23T06:09:18.889Z,50.80
2019-04-23T06:11:58.208Z,50.30
2019-04-23T06:14:44.513Z,49.80
2019-04-23T06:16:58.959Z,49.50
2019-04-23T06:19:21.533Z,48.30
2019-04-23T06:27:05.253Z,48.20
2019-04-23T06:29:32.121Z,46.50
2019-04-23T06:31:58.541Z,46.80
2019-04-23T06:34:48.425Z,44.90
2019-04-23T06:37:03.256Z,46.10
2019-04-23T06:42:08.056Z,46.40
2019-04-23T06:44:37.873Z,45.90
2019-04-23T06:47:08.573Z,46.70
2019-04-23T06:49:49.473Z,46.60
2019-04-23T06:54:50.462Z,47.50
2019-04-23T06:57:17.862Z,47.20
2019-04-23T06:59:48.420Z,47.20
2019-04-23T07:02:22.327Z,47.90
2019-04-23T07:04:56.781Z,48.40
2019-04-23T07:09:56.207Z,46.90
2019-04-23T07:12:29.794Z,45.50
2019-04-23T07:15:00.828Z,44.60
2019-04-23T07:17:25.178Z,46.20
2019-04-23T07:19:58.101Z,45.60
2019-04-23T07:22:32.319Z,46.00
2019-04-23T07:25:00.126Z,45.00
2019-04-23T07:27:33.356Z,45.00
2019-04-23T07:30:11.523Z,45.40
2019-04-23T07:32:35.863Z,44.90
2019-04-23T07:35:16.176Z,44.40
2019-04-23T07:37:40.297Z,44.90
2019-04-23T07:43:03.172Z,44.70
2019-04-23T07:46:02.220Z,45.90
2019-04-23T07:48:24.224Z,45.10
2019-04-23T07:50:55.177Z,44.70
2019-04-23T07:53:29.665Z,44.90
2019-04-23T07:56:03.249Z,46.80
2019-04-23T07:58:39.613Z,48.00
2019-04-23T08:03:36.599Z,47.00
2019-04-23T08:06:00.693Z,46.60
2019-04-23T08:08:39.357Z,46.20
2019-04-23T08:11:33.251Z,46.00
2019-04-23T08:14:00.562Z,44.50
2019-04-23T08:21:18.845Z,43.70
2019-04-23T08:24:05.873Z,44.60
2019-04-23T08:29:18.429Z,44.30
2019-04-23T08:34:30.945Z,45.80
2019-04-23T08:39:32.162Z,44.10
2019-04-23T08:42:21.998Z,44.70
2019-04-23T08:44:36.917Z,44.40
2019-04-23T08:47:10.334Z,42.60
2019-04-23T08:49:43.549Z,44.10
2019-04-23T08:54:48.407Z,47.30
2019-04-23T08:57:12.108Z,46.60
2019-04-23T08:59:43.877Z,45.80
2019-04-23T09:04:49.608Z,45.20
2019-04-23T09:07:21.683Z,46.00
2019-04-23T09:09:50.908Z,45.00
2019-04-23T09:14:52.314Z,44.80
2019-04-23T09:17:27.405Z,46.20
2019-04-23T09:20:06.769Z,46.50
2019-04-23T09:24:57.175Z,46.70
2019-04-23T09:35:06.219Z,47.20
2019-04-23T09:37:44.137Z,45.80
2019-04-23T09:40:27.444Z,47.00
2019-04-23T09:42:54.548Z,49.00
2019-04-23T09:53:17.736Z,47.60
2019-04-23T09:58:18.607Z,48.30
2019-04-23T10:00:46.950Z,49.20
2019-04-23T10:03:07.609Z,49.90
2019-04-23T10:05:33.598Z,48.00
2019-04-23T10:08:02.880Z,48.30
2019-04-23T10:10:26.010Z,48.30
2019-04-23T10:12:55.892Z,48.80
2019-04-23T10:15:32.415Z,48.20
2019-04-23T10:17:58.287Z,47.20
2019-04-23T10:20:28.969Z,48.10
2019-04-23T10:23:00.039Z,48.30
2019-04-23T10:25:30.203Z,47.80
2019-04-23T10:28:04.975Z,47.40
2019-04-23T10:30:32.929Z,47.90
2019-04-23T10:33:03.346Z,46.40
2019-04-23T10:35:43.244Z,46.30
2019-04-23T10:38:10.314Z,46.40
2019-04-23T10:40:38.872Z,46.50
2019-04-23T10:43:07.772Z,44.80
2019-04-23T10:46:07.837Z,46.60
2019-04-23T10:49:07.308Z,47.60
2019-04-23T10:54:24.657Z,46.50
2019-04-23T10:56:46.279Z,46.40
2019-04-23T10:59:19.393Z,45.60
2019-04-23T11:01:45.078Z,47.00
2019-04-23T11:04:31.450Z,46.40
2019-04-23T11:09:38.623Z,47.10
2019-04-23T11:11:52.547Z,47.20
2019-04-23T11:14:31.024Z,47.30
2019-04-23T11:19:34.441Z,50.70
2019-04-23T11:22:24.762Z,49.50
2019-04-23T11:27:09.995Z,49.00
2019-04-23T11:29:48.366Z,49.40
2019-04-23T11:32:22.037Z,48.90
2019-04-23T11:34:57.036Z,52.20
2019-04-23T11:37:12.304Z,48.80
2019-04-23T11:42:14.702Z,50.10
2019-04-23T11:44:41.779Z,49.60
2019-04-23T11:47:32.752Z,48.60
2019-04-23T11:49:53.274Z,50.70
2019-04-23T11:52:30.764Z,50.00
2019-04-23T11:54:43.180Z,51.20
2019-04-23T11:57:29.862Z,52.60
2019-04-23T12:00:05.942Z,48.70
2019-04-23T12:02:23.331Z,49.70
2019-04-23T12:05:01.751Z,51.70
2019-04-23T12:07:32.644Z,51.40
2019-04-23T12:10:03.098Z,50.40
2019-04-23T12:15:09.680Z,49.80
2019-04-23T12:17:50.808Z,52.70
2019-04-23T12:20:27.082Z,49.90
2019-04-23T12:23:03.902Z,51.00
2019-04-23T12:25:27.899Z,50.30
2019-04-23T12:27:47.861Z,50.10
2019-04-23T12:30:34.289Z,51.10
2019-04-23T12:33:03.308Z,52.70
2019-04-23T12:35:32.557Z,50.90
2019-04-23T12:38:07.156Z,51.30
2019-04-23T12:43:25.655Z,50.80
2019-04-23T12:48:28.194Z,51.30
2019-04-23T12:53:29.438Z,50.70
2019-04-23T12:55:47.850Z,50.10
2019-04-23T12:58:24.768Z,51.60
2019-04-23T13:00:46.021Z,50.50
2019-04-23T13:03:25.986Z,51.50
2019-04-23T13:05:41.965Z,50.50
2019-04-23T13:08:33.681Z,49.20
2019-04-23T13:11:14.142Z,50.20
2019-04-23T13:16:05.874Z,50.20
2019-04-23T13:21:14.255Z,50.60
2019-04-23T13:23:34.689Z,51.30
2019-04-23T13:26:04.163Z,52.80
2019-04-23T13:28:46.977Z,50.10
2019-04-23T13:31:14.971Z,50.90
2019-04-23T13:33:45.500Z,51.60
2019-04-23T13:36:29.972Z,50.50
2019-04-23T13:38:54.993Z,53.20
2019-04-23T13:43:48.484Z,49.40
2019-04-23T13:46:27.853Z,49.40
2019-04-23T13:48:57.479Z,49.60
2019-04-23T13:54:01.702Z,48.30
2019-04-23T13:56:54.010Z,48.40
2019-04-23T13:59:26.376Z,48.10
2019-04-23T14:01:46.573Z,47.80
2019-04-23T14:04:38.945Z,50.60
2019-04-23T14:06:55.495Z,49.00
2019-04-23T14:12:10.718Z,49.40
2019-04-23T14:14:52.145Z,48.00
2019-04-23T14:19:47.737Z,45.60
2019-04-23T14:22:31.370Z,48.40
2019-04-23T14:27:24.528Z,46.90
2019-04-23T14:29:58.515Z,46.50
2019-04-23T14:32:22.413Z,44.30
2019-04-23T14:35:04.823Z,44.70
2019-04-23T14:37:22.029Z,43.80
2019-04-23T14:40:06.124Z,44.70
2019-04-23T14:42:47.247Z,44.70
2019-04-23T14:45:19.097Z,45.10
2019-04-23T14:47:38.126Z,45.00
2019-04-23T14:50:28.037Z,45.50
2019-04-23T14:52:50.407Z,45.80
2019-04-23T14:55:40.189Z,45.80
2019-04-23T14:57:57.468Z,45.40
2019-04-23T15:00:17.600Z,45.50
2019-04-23T15:02:53.630Z,46.10
2019-04-23T15:05:17.560Z,45.90
2019-04-23T15:07:51.453Z,45.80
2019-04-23T15:12:56.326Z,46.40
2019-04-23T15:15:26.807Z,46.60
2019-04-23T15:17:55.638Z,46.80
2019-04-23T15:25:32.120Z,47.40
2019-04-23T15:27:13.487Z,47.20
2019-04-23T15:30:28.161Z,48.70
2019-04-23T15:36:02.288Z,47.30
2019-04-23T15:38:27.054Z,47.70
2019-04-23T15:40:45.625Z,47.40
2019-04-23T15:43:09.117Z,47.80
2019-04-23T15:45:46.953Z,47.80
2019-04-23T15:50:48.212Z,48.10
2019-04-23T15:53:24.580Z,49.60
2019-04-23T15:55:49.390Z,48.30
2019-04-23T16:01:15.485Z,48.40
2019-04-23T16:03:18.150Z,48.00
2019-04-23T16:05:49.166Z,48.60
2019-04-23T16:09:03.397Z,49.90
2019-04-23T16:11:34.874Z,49.00
2019-04-23T16:16:34.355Z,49.70
2019-04-23T16:18:58.986Z,50.70
2019-04-23T16:21:36.024Z,49.80
2019-04-23T16:24:06.101Z,49.80
2019-04-23T16:26:39.180Z,50.80
2019-04-23T16:29:27.432Z,50.40
2019-04-23T16:34:27.210Z,50.40
2019-04-23T16:36:55.560Z,50.00
2019-04-23T16:39:21.659Z,50.00
2019-04-23T16:44:32.987Z,50.50
2019-04-23T16:47:04.579Z,53.00
2019-04-23T16:52:02.059Z,51.90
2019-04-23T16:57:26.343Z,53.20
2019-04-23T16:59:35.306Z,53.70
2019-04-23T17:04:39.234Z,54.30
2019-04-23T17:09:51.122Z,54.10
2019-04-23T17:12:15.018Z,55.50
2019-04-23T17:14:41.405Z,54.60
2019-04-23T17:17:15.184Z,54.80
2019-04-23T17:19:48.499Z,54.30
2019-04-23T17:22:33.935Z,54.40
2019-04-23T17:24:54.132Z,54.40
2019-04-23T17:29:58.068Z,54.90
2019-04-23T17:32:23.381Z,55.30
2019-04-23T17:35:04.831Z,55.30
2019-04-23T17:37:32.518Z,55.80
2019-04-23T17:42:52.400Z,55.80
2019-04-23T17:48:18.784Z,56.80
2019-04-23T18:03:30.380Z,58.40
2019-04-23T18:06:15.705Z,58.50
2019-04-23T18:08:33.299Z,59.00
2019-04-23T18:11:12.855Z,58.60
2019-04-23T18:13:36.759Z,58.70
2019-04-23T18:16:21.600Z,58.90
2019-04-23T18:18:46.797Z,59.20
2019-04-23T18:21:39.388Z,59.50
2019-04-23T18:24:16.741Z,59.60
2019-04-23T18:26:56.278Z,60.60
2019-04-23T18:29:35.800Z,60.30
2019-04-23T18:32:12.683Z,60.80
2019-04-23T18:34:54.126Z,60.90
2019-04-23T18:37:12.062Z,61.90
2019-04-23T18:39:43.691Z,62.10
2019-04-23T18:42:21.470Z,62.00
2019-04-23T18:44:48.486Z,62.40
2019-04-23T18:47:26.142Z,62.50
2019-04-23T18:52:26.036Z,63.00
2019-04-23T18:54:49.703Z,62.70
2019-04-23T18:57:19.373Z,63.20
2019-04-23T19:02:44.186Z,63.60
2019-04-23T19:05:19.165Z,63.60
2019-04-23T19:08:06.927Z,63.70
2019-04-23T19:10:51.200Z,63.90
2019-04-23T19:13:24.800Z,65.00
2019-04-23T19:15:45.893Z,64.00
2019-04-23T19:18:37.533Z,64.60
2019-04-23T19:26:41.760Z,64.00
2019-04-23T19:31:10.229Z,64.30
2019-04-23T19:33:49.486Z,64.80
2019-04-23T19:41:08.211Z,65.40
2019-04-23T19:43:50.896Z,65.70
2019-04-23T19:48:57.766Z,65.70
2019-04-23T19:54:05.012Z,66.40
2019-04-23T19:56:47.181Z,66.80
2019-04-23T19:59:04.941Z,66.70
2019-04-23T20:01:21.631Z,67.00
2019-04-23T20:04:04.203Z,67.20
2019-04-23T20:06:51.827Z,67.40
2019-04-23T20:09:30.857Z,68.10
2019-04-23T20:11:38.061Z,68.00
2019-04-23T20:16:50.607Z,68.10
2019-04-23T20:19:07.925Z,68.40
2019-04-23T20:21:45.120Z,68.30
2019-04-23T20:24:20.398Z,69.00
2019-04-23T20:26:43.201Z,68.60
2019-04-23T20:29:45.705Z,68.30
2019-04-23T20:34:49.805Z,68.80
2019-04-23T20:39:49.161Z,69.30
2019-04-23T20:44:57.042Z,69.70
2019-04-23T20:50:04.144Z,70.20
2019-04-23T20:52:10.056Z,70.40
2019-04-23T21:05:11.753Z,71.90
2019-04-23T21:12:58.228Z,72.40
2019-04-23T21:15:21.826Z,72.70
2019-04-23T21:23:01.334Z,73.90
2019-04-23T21:25:27.915Z,74.30
2019-04-23T21:28:18.208Z,74.50
2019-04-23T21:33:15.764Z,74.50
2019-04-23T21:41:39.554Z,74.60
2019-04-23T21:46:43.095Z,73.60
2019-04-23T21:53:55.137Z,74.00
2019-04-23T22:04:15.166Z,74.30
2019-04-23T22:06:46.098Z,75.70
2019-04-23T22:09:27.125Z,75.00
2019-04-23T22:11:57.323Z,75.10
2019-04-23T22:16:55.391Z,75.50
2019-04-23T22:19:27.583Z,75.50
2019-04-23T22:21:50.570Z,75.60
2019-04-23T22:24:17.004Z,75.80
2019-04-23T22:26:45.422Z,75.80
2019-04-23T22:29:27.837Z,75.80
2019-04-23T22:32:02.400Z,75.90
2019-04-23T22:34:36.792Z,75.80
2019-04-23T22:37:04.598Z,75.70
2019-04-23T22:39:31.600Z,75.70
2019-04-23T22:42:08.762Z,75.70
2019-04-23T22:44:30.864Z,75.00
2019-04-23T22:47:02.100Z,75.00
2019-04-23T22:49:45.264Z,75.00
2019-04-23T22:52:16.404Z,74.60
2019-04-23T22:54:51.069Z,75.30
2019-04-23T22:57:09.130Z,75.80
2019-04-23T23:02:26.960Z,75.80
2019-04-23T23:05:14.384Z,75.20
2019-04-23T23:07:29.905Z,75.60
2019-04-23T23:10:03.974Z,75.40
2019-04-23T23:12:37.058Z,75.90
2019-04-23T23:15:01.077Z,76.60
2019-04-23T23:17:32.607Z,76.50
2019-04-23T23:20:15.461Z,77.50
2019-04-23T23:22:47.326Z,78.30
2019-04-23T23:25:11.373Z,79.00
2019-04-23T23:27:45.934Z,79.00
2019-04-23T23:32:40.525Z,79.50
2019-04-23T23:37:47.510Z,80.50
2019-04-23T23:40:21.921Z,81.10
2019-04-23T23:42:58.303Z,81.00
2019-04-23T23:47:53.870Z,82.40
2019-04-23T23:50:25.471Z,82.40
2019-04-23T23:52:54.917Z,81.80
2019-04-23T23:55:25.033Z,81.20
2019-04-23T23:58:03.596Z,80.40
